sensor_id;sensor_type;location;lat;lon;timestamp;pressure;altitude;pressure_sealevel;temperature;humidity
64243;BME280;50573;51.512;5.386;2023-01-26T00:03:12;102292.59;;;-0.68;100.00
64243;BME280;50573;51.512;5.386;2023-01-26T00:13:16;102284.25;;;-0.67;100.00
64243;BME280;50573;51.512;5.386;2023-01-26T00:23:21;102274.28;;;-0.58;100.00
64243;BME280;50573;51.512;5.386;2023-01-26T00:33:24;102265.38;;;-0.70;100.00
64243;BME280;50573;51.512;5.386;2023-01-26T00:43:28;102251.88;;;-0.45;100.00
64243;BME280;50573;51.512;5.386;2023-01-26T00:53:31;102236.78;;;-0.41;100.00
64243;BME280;50573;51.512;5.386;2023-01-26T01:03:35;102228.09;;;-0.38;100.00
64243;BME280;50573;51.512;5.386;2023-01-26T01:13:39;102218.97;;;-0.45;100.00
64243;BME280;50573;51.512;5.386;2023-01-26T01:23:43;102223.81;;;-0.39;100.00
64243;BME280;50573;51.512;5.386;2023-01-26T01:33:46;102217.59;;;-0.51;100.00
64243;BME280;50573;51.512;5.386;2023-01-26T01:43:50;102225.28;;;-0.41;100.00
64243;BME280;50573;51.512;5.386;2023-01-26T01:53:53;102223.75;;;-0.51;100.00
64243;BME280;50573;51.512;5.386;2023-01-26T02:04:01;102224.13;;;-0.69;100.00
64243;BME280;50573;51.512;5.386;2023-01-26T02:14:06;102210.19;;;-0.46;100.00
64243;BME280;50573;51.512;5.386;2023-01-26T02:24:13;102192.63;;;-0.35;100.00
64243;BME280;50573;51.512;5.386;2023-01-26T02:34:19;102192.72;;;-0.52;100.00
64243;BME280;50573;51.512;5.386;2023-01-26T02:44:22;102187.47;;;-0.40;100.00
64243;BME280;50573;51.512;5.386;2023-01-26T02:54:26;102183.31;;;-0.29;100.00
64243;BME280;50573;51.512;5.386;2023-01-26T03:04:47;102173.44;;;-0.37;100.00
64243;BME280;50573;51.512;5.386;2023-01-26T03:14:51;102182.41;;;-0.33;100.00
64243;BME280;50573;51.512;5.386;2023-01-26T03:25:18;102176.97;;;-0.24;100.00
64243;BME280;50573;51.512;5.386;2023-01-26T03:35:40;102172.59;;;-0.29;100.00
64243;BME280;50573;51.512;5.386;2023-01-26T03:45:43;102185.09;;;-0.12;100.00
64243;BME280;50573;51.512;5.386;2023-01-26T03:56:09;102175.28;;;-0.08;100.00
64243;BME280;50573;51.512;5.386;2023-01-26T04:06:20;102158.06;;;0.02;100.00
64243;BME280;50573;51.512;5.386;2023-01-26T04:16:42;102160.44;;;0.15;100.00
64243;BME280;50573;51.512;5.386;2023-01-26T04:27:03;102166.13;;;0.14;100.00
64243;BME280;50573;51.512;5.386;2023-01-26T04:37:11;102152.34;;;0.24;100.00
64243;BME280;50573;51.512;5.386;2023-01-26T04:47:19;102160.59;;;0.19;100.00
64243;BME280;50573;51.512;5.386;2023-01-26T04:57:23;102161.53;;;0.35;100.00
64243;BME280;50573;51.512;5.386;2023-01-26T05:07:27;102154.50;;;0.42;100.00
64243;BME280;50573;51.512;5.386;2023-01-26T05:17:32;102154.31;;;0.47;100.00
64243;BME280;50573;51.512;5.386;2023-01-26T05:28:16;102153.56;;;0.47;100.00
64243;BME280;50573;51.512;5.386;2023-01-26T05:38:21;102157.91;;;0.51;100.00
64243;BME280;50573;51.512;5.386;2023-01-26T05:48:24;102171.13;;;0.56;100.00
64243;BME280;50573;51.512;5.386;2023-01-26T05:58:28;102157.03;;;0.59;100.00
64243;BME280;50573;51.512;5.386;2023-01-26T06:08:32;102175.47;;;0.61;100.00
64243;BME280;50573;51.512;5.386;2023-01-26T06:18:55;102182.72;;;0.60;100.00
64243;BME280;50573;51.512;5.386;2023-01-26T06:28:58;102175.88;;;0.51;100.00
64243;BME280;50573;51.512;5.386;2023-01-26T06:39:07;102184.19;;;0.58;100.00
64243;BME280;50573;51.512;5.386;2023-01-26T06:49:12;102179.38;;;0.63;100.00
64243;BME280;50573;51.512;5.386;2023-01-26T06:59:18;102186.00;;;0.66;100.00
64243;BME280;50573;51.512;5.386;2023-01-26T07:09:40;102186.88;;;0.70;100.00
64243;BME280;50573;51.512;5.386;2023-01-26T07:19:44;102206.56;;;0.74;100.00
64243;BME280;50573;51.512;5.386;2023-01-26T07:29:47;102199.53;;;0.69;100.00
64243;BME280;50573;51.512;5.386;2023-01-26T07:39:53;102205.66;;;0.70;100.00
64243;BME280;50573;51.512;5.386;2023-01-26T07:49:55;102202.34;;;0.73;100.00
64243;BME280;50573;51.512;5.386;2023-01-26T08:00:00;102224.00;;;0.80;100.00
64243;BME280;50573;51.512;5.386;2023-01-26T08:10:12;102225.47;;;0.77;100.00
64243;BME280;50573;51.512;5.386;2023-01-26T08:20:16;102236.53;;;0.88;100.00
64243;BME280;50573;51.512;5.386;2023-01-26T08:30:19;102237.47;;;0.92;100.00
64243;BME280;50573;51.512;5.386;2023-01-26T08:40:24;102242.50;;;0.93;100.00
64243;BME280;50573;51.512;5.386;2023-01-26T08:50:27;102246.66;;;1.03;100.00
64243;BME280;50573;51.512;5.386;2023-01-26T09:00:31;102253.81;;;1.11;100.00
64243;BME280;50573;51.512;5.386;2023-01-26T09:10:36;102254.28;;;1.25;100.00
64243;BME280;50573;51.512;5.386;2023-01-26T09:20:41;102247.16;;;1.29;100.00
64243;BME280;50573;51.512;5.386;2023-01-26T09:30:44;102258.47;;;1.47;100.00
64243;BME280;50573;51.512;5.386;2023-01-26T09:40:55;102254.34;;;1.49;100.00
64243;BME280;50573;51.512;5.386;2023-01-26T09:51:01;102271.69;;;1.64;100.00
64243;BME280;50573;51.512;5.386;2023-01-26T10:01:13;102260.94;;;1.76;100.00
64243;BME280;50573;51.512;5.386;2023-01-26T10:11:24;102265.63;;;1.91;100.00
64243;BME280;50573;51.512;5.386;2023-01-26T10:21:32;102261.56;;;2.09;100.00
64243;BME280;50573;51.512;5.386;2023-01-26T10:31:37;102264.91;;;2.18;100.00
64243;BME280;50573;51.512;5.386;2023-01-26T10:41:55;102274.84;;;2.29;100.00
64243;BME280;50573;51.512;5.386;2023-01-26T10:52:07;102266.19;;;2.48;100.00
64243;BME280;50573;51.512;5.386;2023-01-26T11:02:23;102280.31;;;2.72;100.00
64243;BME280;50573;51.512;5.386;2023-01-26T11:12:28;102268.19;;;3.06;100.00
64243;BME280;50573;51.512;5.386;2023-01-26T11:22:37;102264.72;;;3.37;100.00
64243;BME280;50573;51.512;5.386;2023-01-26T11:32:55;102262.88;;;3.72;100.00
64243;BME280;50573;51.512;5.386;2023-01-26T11:43:21;102268.75;;;4.28;100.00
64243;BME280;50573;51.512;5.386;2023-01-26T12:03:55;102246.53;;;4.72;100.00
64243;BME280;50573;51.512;5.386;2023-01-26T12:14:07;102235.97;;;5.05;100.00
64243;BME280;50573;51.512;5.386;2023-01-26T12:24:18;102215.09;;;5.77;100.00
64243;BME280;50573;51.512;5.386;2023-01-26T12:34:43;102212.03;;;6.34;100.00
64243;BME280;50573;51.512;5.386;2023-01-26T12:44:52;102190.00;;;6.69;100.00
64243;BME280;50573;51.512;5.386;2023-01-26T12:55:00;102192.59;;;6.95;100.00
64243;BME280;50573;51.512;5.386;2023-01-26T13:05:06;102183.84;;;7.16;100.00
64243;BME280;50573;51.512;5.386;2023-01-26T13:15:13;102183.22;;;7.33;100.00
64243;BME280;50573;51.512;5.386;2023-01-26T13:25:24;102173.19;;;7.37;99.88
64243;BME280;50573;51.512;5.386;2023-01-26T13:35:30;102166.38;;;7.64;96.71
64243;BME280;50573;51.512;5.386;2023-01-26T13:45:38;102181.97;;;7.77;94.15
64243;BME280;50573;51.512;5.386;2023-01-26T13:55:50;102188.16;;;7.74;93.45
64243;BME280;50573;51.512;5.386;2023-01-26T14:05:59;102176.41;;;7.56;93.31
64243;BME280;50573;51.512;5.386;2023-01-26T14:16:06;102184.63;;;7.70;92.46
64243;BME280;50573;51.512;5.386;2023-01-26T14:26:17;102192.38;;;7.72;90.28
64243;BME280;50573;51.512;5.386;2023-01-26T14:36:24;102192.34;;;7.61;90.64
64243;BME280;50573;51.512;5.386;2023-01-26T14:46:34;102189.56;;;7.54;89.89
64243;BME280;50573;51.512;5.386;2023-01-26T14:56:39;102196.03;;;7.36;86.30
64243;BME280;50573;51.512;5.386;2023-01-26T15:06:44;102201.47;;;7.39;86.29
64243;BME280;50573;51.512;5.386;2023-01-26T15:16:51;102190.19;;;7.34;86.13
64243;BME280;50573;51.512;5.386;2023-01-26T15:27:04;102193.19;;;7.22;87.12
64243;BME280;50573;51.512;5.386;2023-01-26T15:37:26;102185.41;;;7.13;88.11
64243;BME280;50573;51.512;5.386;2023-01-26T15:47:30;102190.09;;;7.20;88.41
64243;BME280;50573;51.512;5.386;2023-01-26T15:57:34;102196.59;;;7.12;89.02
64243;BME280;50573;51.512;5.386;2023-01-26T16:07:38;102199.69;;;7.14;89.07
64243;BME280;50573;51.512;5.386;2023-01-26T16:17:41;102209.72;;;7.06;89.74
64243;BME280;50573;51.512;5.386;2023-01-26T16:27:46;102212.38;;;7.02;90.15
64243;BME280;50573;51.512;5.386;2023-01-26T16:37:49;102237.50;;;6.99;91.72
64243;BME280;50573;51.512;5.386;2023-01-26T16:47:56;102222.13;;;6.70;95.14
64243;BME280;50573;51.512;5.386;2023-01-26T16:58:00;102214.72;;;6.64;95.09
64243;BME280;50573;51.512;5.386;2023-01-26T17:08:05;102218.16;;;6.61;94.08
64243;BME280;50573;51.512;5.386;2023-01-26T17:18:09;102222.59;;;6.76;93.30
64243;BME280;50573;51.512;5.386;2023-01-26T17:28:14;102225.69;;;6.78;93.79
64243;BME280;50573;51.512;5.386;2023-01-26T17:38:18;102235.38;;;6.82;94.25
64243;BME280;50573;51.512;5.386;2023-01-26T17:48:22;102233.44;;;6.79;94.53
64243;BME280;50573;51.512;5.386;2023-01-26T17:58:28;102234.25;;;6.83;91.86
64243;BME280;50573;51.512;5.386;2023-01-26T18:08:34;102235.34;;;6.75;88.81
64243;BME280;50573;51.512;5.386;2023-01-26T18:18:37;102236.78;;;6.66;88.63
64243;BME280;50573;51.512;5.386;2023-01-26T18:28:42;102238.22;;;6.56;89.94
64243;BME280;50573;51.512;5.386;2023-01-26T18:38:50;102237.00;;;6.54;90.68
64243;BME280;50573;51.512;5.386;2023-01-26T18:48:55;102238.91;;;6.50;91.24
64243;BME280;50573;51.512;5.386;2023-01-26T18:59:03;102234.63;;;6.49;91.75
64243;BME280;50573;51.512;5.386;2023-01-26T19:09:08;102243.06;;;6.44;92.58
64243;BME280;50573;51.512;5.386;2023-01-26T19:19:12;102230.75;;;6.46;91.72
64243;BME280;50573;51.512;5.386;2023-01-26T19:29:17;102238.91;;;6.50;91.29
64243;BME280;50573;51.512;5.386;2023-01-26T19:39:20;102239.31;;;6.52;90.41
64243;BME280;50573;51.512;5.386;2023-01-26T19:49:25;102233.97;;;6.59;89.57
64243;BME280;50573;51.512;5.386;2023-01-26T19:59:28;102228.16;;;6.57;88.78
64243;BME280;50573;51.512;5.386;2023-01-26T20:09:33;102235.78;;;6.48;88.40
64243;BME280;50573;51.512;5.386;2023-01-26T20:19:37;102236.22;;;6.50;88.06
64243;BME280;50573;51.512;5.386;2023-01-26T20:29:42;102241.66;;;6.53;87.94
64243;BME280;50573;51.512;5.386;2023-01-26T20:39:45;102232.38;;;6.54;87.84
64243;BME280;50573;51.512;5.386;2023-01-26T20:49:50;102237.00;;;6.54;87.65
64243;BME280;50573;51.512;5.386;2023-01-26T20:59:57;102226.56;;;6.52;87.92
64243;BME280;50573;51.512;5.386;2023-01-26T21:10:01;102229.22;;;6.49;87.75
64243;BME280;50573;51.512;5.386;2023-01-26T21:20:06;102224.59;;;6.49;88.13
64243;BME280;50573;51.512;5.386;2023-01-26T21:30:11;102216.38;;;6.42;88.66
64243;BME280;50573;51.512;5.386;2023-01-26T21:40:15;102219.81;;;6.39;87.61
64243;BME280;50573;51.512;5.386;2023-01-26T21:50:23;102200.09;;;6.39;88.72
64243;BME280;50573;51.512;5.386;2023-01-26T22:00:46;102205.94;;;6.41;89.55
64243;BME280;50573;51.512;5.386;2023-01-26T22:10:54;102207.41;;;6.35;89.56
64243;BME280;50573;51.512;5.386;2023-01-26T22:20:57;102193.34;;;6.22;91.35
64243;BME280;50573;51.512;5.386;2023-01-26T22:31:03;102196.28;;;6.10;91.75
64243;BME280;50573;51.512;5.386;2023-01-26T22:41:11;102203.47;;;5.99;91.74
64243;BME280;50573;51.512;5.386;2023-01-26T22:51:18;102191.81;;;5.92;93.62
64243;BME280;50573;51.512;5.386;2023-01-26T23:01:21;102207.00;;;6.03;92.88
64243;BME280;50573;51.512;5.386;2023-01-26T23:11:27;102217.38;;;5.98;91.38
64243;BME280;50573;51.512;5.386;2023-01-26T23:21:30;102215.28;;;5.88;90.22
64243;BME280;50573;51.512;5.386;2023-01-26T23:31:35;102222.38;;;5.96;88.27
64243;BME280;50573;51.512;5.386;2023-01-26T23:41:38;102215.16;;;5.81;87.73
64243;BME280;50573;51.512;5.386;2023-01-26T23:51:42;102213.31;;;5.85;86.99
